Bayanbulag, Mongolia
Current Conditions -  °F | °C
As of 9:30 PM on Tuesday 21 Oct 2014 (Local Time) from ZMUB Reporting Station
Clear Clear  
Wind Chill: 34°   Ceiling: Unl
Heat Index: 37°   Visibility: 4mi
Dew Point: 14°   Wind: 4mph
Humidity: 38%   Direction: 170°S
Pressure: 29.97"   Gusts: NA
Location:  46.81°N, 98.09°E
Report Text: ZMUB 211330Z 17002MPS 6000NW NSC 03/M10 Q1015 BECMG 6000 RMK QFE654.3 38 NT
Loading
Personal Weather Stations






























Interactive Weather Map
Tropical Storm Tracking
New forecast layout! Learn more

10-Day Weather Forecast

Advertisements
Track Severe Weather on mobile